My Meet Scores
Sydney Knieriem, Gym Kinetics Gymnastics - MyMeetScores.com
Top100 | Top Teams | Upcoming Meets | Completed Meets | Latest | Add Scores | Help| Support | Bookmark and Share

Sydney Knieriem, Gym Kinetics Gymnastics
Personal Bests
LevelVault BarsBeamFloorAA
39.5509.725 9.6009.50038.150
49.5009.825 9.7009.50037.550
Scores on America's Top 100as of 10.23.2021
Year Level Vault Bars Beam Floor AA
2021 49.825

Click here to view our exclusive Top 100 Collection
Meet Scores
Date Meet Team Session Level Division Vault Bars Beam Floor AA
2021-03-12 2021 Illinois Level 4 State Championships Gym Kinetics Gymnastics 6 4 Sr B 9.350 3 9.825 1 9.300 6T 8.875 17 37.350 4
2021-02-26 Kinetic Classic 2021 Gym Kinetics Gymnastics 09 4 Older 9.000 6 9.400 3 9.325 9 9.175 11 36.900 6
2021-02-12 Harley Meet Women - Midwest Twisters Gym Kinetics Gymnastics S02 4 Sr A 9.500 1 9.450 1T 9.100 6 9.500 4 37.550 2
2021-01-21 King Arthur Invitational Gym Kinetics Gymnastics 7 4 JR 9.000 5 9.250 6 9.125 4 9.475 3 36.850 5
2021-01-14 2021 Bravo Classic Gym Kinetics Gymnastics 5 4 Sr 9.250 7T 9.250 5 9.100 14T 9.250 6T 36.850 6
2020-12-18 Aspire Classic Gym Kinetics Gymnastics 1 4 Older 9.250 1 8.950 7 8.700 17 9.400 1 36.300 4
2020-03-06 Illinois Level 4 State Championships Gym Kinetics Gymnastics 4 4 Youth E 9.225 6 9.075 10 9.700 2 8.950 17T 36.950 6
2020-01-31 Chow's Challenge Gym Kinetics Gymnastics B2 4 Jr B 9.000 3T 9.100 6T 9.200 4 9.050 7 36.350 5
2020-01-17 2020 Bravo Classic Gym Kinetics Gymnastics 6B 4 Jr 9.000 6 9.400 6T 9.425 1 9.050 12T 36.875 5
2020-01-10 Leenda's Island Adventure Gym Kinetics Gymnastics PG6 4 9 Year Old 9.400 1 9.150 3 9.375 1 8.500 10 36.425 3
2019-12-20 Aspire Classic - 2019 Gym Kinetics Gymnastics 7A 4 Middle 8.725 6 9.000 6 9.075 11 9.100 3T 35.900 6T
2019-12-06 Ultimate Wish Classic Gym Kinetics Gymnastics 2 4 Jr C 8.450 13 9.200 4T 8.900 10 8.600 8 35.150 9
2019-03-08 2019 Illinois Level 3 State Championship Gym Kinetics Gymnastics 2 3 Jr A 9.550 4T 9.725 2 9.525 2 9.350 7 38.150 2
2019-02-23 Kinetic Classic 2019 Gym Kinetics Gymnastics 1 3 Middle 9.200 11 9.250 10T 9.050 17T 9.075 19T 36.575 11
2019-02-08 Midwest Twisters Harley Meet Womens Gym Kinetics Gymnastics T07 3 8b 9.325 3 9.100 4 9.350 1 9.200 3 36.975 2
2019-01-18 2019 Bravo Classic Gym Kinetics Gymnastics 6B 3 Jr 9.200 8T 9.150 7T 9.400 4 9.350 4T 37.100 5
2019-01-11 St Jude Benefit Meet Gym Kinetics Gymnastics 2A 3 Jr C 9.400 2T 9.200 2 9.500 2 9.500 1T 37.600 1
2018-12-14 2018 Aspire Classic Gym Kinetics Gymnastics 2 3 Sr A 9.050 12 9.300 4 9.600 2 9.325 2 37.275 2
2018-05-03 Illinois USA Gymnastics Level 3 State Championships Gym Kinetics Gymnastics 8 3 Ch E 9.525 8T 9.600 1 9.450 2 9.375 7T 37.950 1
2018-02-23 Kinetic Classic Gym Kinetics Gymnastics 5 3 Younger 9.400 5T 9.425 22T 8.775 54T 9.250 36T 36.850 27
2018-02-03 Midwest Games Gym Kinetics Gymnastics 4 3 JR B 9.250 3T 9.150 3 8.950 6T 9.250 5 36.600 3
2018-01-19 2018 Bravo Classic Gym Kinetics Gymnastics 6B 3 Child 9.250 8T 9.425 1 8.775 6 9.300 3 36.750 2
2017-12-15 2017 Aspire Classic Gym Kinetics Gymnastics 9A 3 Younger 9.200 5 9.200 4 8.950 4 8.800 12T 36.150 5
Get your scores on
a t-shirt, pin, or hoodie